Wall Lake, IA (51466)

8:00 PM CDT on August 01, 2014 (GMT -0500)
Oxendales Arthur, IA (KIAARTHU2) Elev 1496 ft | 42.28 °N, 95.36 °W | Change Station

Current weather conditions updated 33 seconds ago

Clear
Clear
75.0 °F
Feels Like 77 °F
N
0.0
Wind Variable Wind from WNW
Gusts 0.0 mph

Tomorrow is forecast to be Cooler than today.

Today
High -- | Low -- °F
--% Chance of Precip.
Yesterday
High -- | Low -- °F
Precip. -- in
6:13 AM 8:39 PM
Waxing Crescent, 30% visible
Pressure 30.07 in
Visibility 10.0 miles
Clouds Clear
Heat Index 77 °F
Dew Point 63 °F
Humidity 66%
Rainfall 0.00 in
Snow Depth Not available.
UV 0 out of 12
Pollen 6.20 out of 12
Air Quality Not available.
Flu Activity Not available.
METAR KCIN 020055Z AUTO 08003KT 10SM CLR 23/19 A3007 RMK AO2

More Conditions Fewer Conditions

Pressure 30.07 in
Visibility 10.0 miles
Clouds Clear
Heat Index 77 °F
Dew Point 63 °F
Humidity 66%
Rainfall 0.00 in
Snow Depth Not available.
UV 0 out of 12
Pollen 6.20 out of 12
Air Quality Not available.
Flu Activity Not available.
METAR KCIN 020055Z AUTO 08003KT 10SM CLR 23/19 A3007 RMK AO2

More Conditions Fewer Conditions

10-Day Weather Forecast

Almanac

Astronomy

Aug. 01, 2014 Rise Set
Actual Time 6:13 AM CDT 8:39 PM CDT
Civil Twilight 5:41 AM CDT 9:11 PM CDT
Nautical Twilight 5:01 AM CDT 9:50 PM CDT
Astronomical Twilight 4:17 AM CDT 10:34 PM CDT
Moon 11:45 AM CDT (8/1) 11:16 PM CDT (8/1)
Length of Visible Light 15h 29m
Length of Day
14h 26m
Tomorrow will be 2m 11s shorter.
Waxing Crescent, 30% of the Moon is Illuminated
Today
Waxing Crescent
Aug 3
First Quarter
Aug 10
Full
Aug 17
Last Quarter
Aug 25
New

Today's Extremes

State Highs State Lows

Community

WunderPhotos

Upload Photos

1,739,780 photos uploaded!

Nearby

Snow Depth

Station Depth Elevation
No new snow has been reported.

Earthquake Activity

City Distance Mag. Time & Date
No recent earthquake activity has been reported nearby.
Minimum magnitude displayed is 2.5.

Coastal Water Temperatures

Place Temperature
No Stations Reporting

Nearby Weather Stations

Station Location Temp. Heat Index Dew Point Humidity Wind Precip. Elev Updated Type
Oxendales Arthur, IA, Arthur, IA 75.0 °F 77 °F 63 °F 66% WNW  at  0.0 mph 0.00 in / hr 1496 ft 8:00 PM CDT Rapid Fire
Arcadia, Arcadia, IA 82.6 °F 84 °F 63 °F 52% ESE  at  0.0 mph - / hr 1447 ft 7:48 PM CDT Normal
MesoWest VAIL1 , Vail, IA 89 °F 86 °F - - North  at  - 0.00 in / hr 1248 ft 6:20 PM CDT MADIS
Midwest, Lake City, IA 79.1 °F 80 °F 62 °F 56% SE  at  0.0 mph 0.00 in / hr 1201 ft 7:51 PM CDT Normal

Show More Stations Show Fewer Stations